Time;durP1;ratioP1;P1;durP2;ratioP2;P2;SDS_P1;SDS_P2;PMS_P1;PMS_P2;Temp;Humidity;BMP_temperature;BMP_pressure;BME280_temperature;BME280_humidity;BME280_pressure;Samples;Min_cycle;Max_cycle;Signal;HPM_P1;HPM_P2
2022/04/03 00:00:44;;;;;;;286.58;261.20;;;;;;;17.44;27.32;93306.03;5020864;28;20520;-70
2022/04/03 00:03:10;;;;;;;285.58;260.33;;;;;;;17.44;27.10;93306.03;5022248;28;20050;-70
2022/04/03 00:05:41;;;;;;;285.17;260.00;;;;;;;17.45;27.17;93308.28;5016426;28;20052;-69
2022/04/03 00:08:08;;;;;;;287.40;262.08;;;;;;;17.44;27.29;93312.19;5024477;28;20127;-70
2022/04/03 00:10:35;;;;;;;289.77;263.95;;;;;;;17.43;27.30;93310.69;5026376;28;20106;-69
2022/04/03 00:13:02;;;;;;;278.40;253.73;;;;;;;17.43;27.37;93313.41;5023819;28;20076;-69
2022/04/03 00:15:27;;;;;;;287.40;261.95;;;;;;;17.43;27.38;93315.38;5024298;28;20451;-70
2022/04/03 00:17:53;;;;;;;286.75;261.50;;;;;;;17.41;27.33;93305.00;5023289;28;20152;-69
2022/04/03 00:20:19;;;;;;;282.63;257.33;;;;;;;17.42;27.31;93311.91;5018620;28;20529;-70
2022/04/03 00:22:48;;;;;;;286.85;261.25;;;;;;;17.42;27.54;93314.63;5023552;28;20990;-69
2022/04/03 00:25:20;;;;;;;285.02;259.83;;;;;;;17.39;27.17;93315.53;5022927;28;20030;-70
2022/04/03 00:27:46;;;;;;;285.30;259.77;;;;;;;17.40;27.35;93319.00;5022585;28;20470;-70
2022/04/03 00:30:12;;;;;;;287.38;261.70;;;;;;;17.41;27.45;93323.94;5023811;28;20041;-70
2022/04/03 00:32:37;;;;;;;281.90;256.67;;;;;;;17.41;27.35;93320.50;5025417;28;20044;-70
2022/04/03 00:35:04;;;;;;;289.67;264.17;;;;;;;17.41;27.33;93323.94;5024017;28;20140;-70
2022/04/03 00:37:30;;;;;;;281.75;256.63;;;;;;;17.40;27.24;93321.69;5021841;28;20106;-70
2022/04/03 00:39:56;;;;;;;283.75;258.60;;;;;;;17.40;27.52;93319.00;5024162;28;20656;-70
2022/04/03 00:42:22;;;;;;;289.60;263.95;;;;;;;17.40;27.29;93319.75;5024141;28;20128;-70
2022/04/03 00:44:47;;;;;;;292.27;265.90;;;;;;;17.39;27.29;93329.06;5024272;28;20046;-70
2022/04/03 00:47:16;;;;;;;286.58;261.27;;;;;;;17.40;27.33;93327.09;5023998;28;20079;-70
2022/04/03 00:49:42;;;;;;;284.60;259.50;;;;;;;17.39;27.07;93333.72;5023437;28;20049;-70
2022/04/03 00:52:08;;;;;;;283.73;258.63;;;;;;;17.37;27.36;93326.06;5022529;28;20171;-70
2022/04/03 00:54:35;;;;;;;279.23;253.95;;;;;;;17.36;27.33;93321.88;5023497;28;20041;-71
2022/04/03 00:57:05;;;;;;;288.90;262.73;;;;;;;17.34;27.35;93326.25;5026527;28;20195;-70
2022/04/03 00:59:30;;;;;;;279.83;254.85;;;;;;;17.34;27.40;93328.97;5024198;28;20461;-70
2022/04/03 01:01:56;;;;;;;279.58;254.60;;;;;;;17.34;27.34;93329.72;5025072;28;20049;-71
2022/04/03 01:04:21;;;;;;;285.85;260.33;;;;;;;17.33;27.41;93327.47;5023239;28;20433;-70
2022/04/03 01:06:47;;;;;;;284.33;258.95;;;;;;;17.34;27.40;93326.25;5021475;28;20132;-70
2022/04/03 01:09:12;;;;;;;327.92;301.17;;;;;;;17.32;27.34;93329.44;5022184;28;20049;-71
2022/04/03 01:11:39;;;;;;;287.33;261.95;;;;;;;17.31;27.46;93327.19;5023533;28;20156;-70
2022/04/03 01:14:05;;;;;;;294.60;268.27;;;;;;;17.30;27.52;93321.03;5023607;28;20044;-70
2022/04/03 01:16:32;;;;;;;286.02;260.73;;;;;;;17.30;27.35;93326.44;5017310;28;20050;-70
2022/04/03 01:18:58;;;;;;;280.27;255.05;;;;;;;17.29;27.38;93338.47;5020572;28;20468;-70
2022/04/03 01:21:24;;;;;;;285.48;260.02;;;;;;;17.29;27.50;93335.75;5021925;28;20068;-70
2022/04/03 01:23:50;;;;;;;281.48;256.25;;;;;;;17.27;27.61;93327.38;5023917;28;20505;-70
2022/04/03 01:26:16;;;;;;;285.30;259.67;;;;;;;17.27;27.40;93338.19;5023101;28;20061;-70
2022/04/03 01:28:43;;;;;;;294.50;268.35;;;;;;;17.27;27.66;93334.75;5024654;28;20052;-70
2022/04/03 01:31:09;;;;;;;275.25;250.00;;;;;;;17.27;27.49;93340.13;5025689;28;20168;-70
2022/04/03 01:33:35;;;;;;;289.65;263.75;;;;;;;17.27;27.47;93340.13;5024277;28;20493;-70
2022/04/03 01:36:00;;;;;;;284.92;259.75;;;;;;;17.27;27.36;93342.84;5021754;28;20187;-70
2022/04/03 01:38:26;;;;;;;279.67;254.45;;;;;;;17.26;27.49;93344.06;5029407;28;20064;-70
2022/04/03 01:40:51;;;;;;;276.90;251.52;;;;;;;17.27;27.65;93340.13;5024455;28;20049;-70
2022/04/03 01:43:17;;;;;;;286.20;260.40;;;;;;;17.25;27.47;93343.31;5021735;28;20053;-70
2022/04/03 01:45:42;;;;;;;285.77;260.38;;;;;;;17.24;27.58;93343.78;5023000;28;20057;-70
2022/04/03 01:48:09;;;;;;;284.27;258.95;;;;;;;17.25;27.46;93345.25;5024445;28;20088;-70
2022/04/03 01:50:35;;;;;;;280.15;254.90;;;;;;;17.26;27.56;93341.34;5023250;28;20064;-70
2022/04/03 01:53:00;;;;;;;276.33;251.27;;;;;;;17.26;27.34;93346.75;5025295;28;20037;-70
2022/04/03 01:55:26;;;;;;;280.00;254.90;;;;;;;17.26;27.35;93346.75;5023451;28;20640;-70
2022/04/03 01:57:52;;;;;;;280.90;255.30;;;;;;;17.27;27.59;93350.94;5024347;28;20101;-70
2022/04/03 02:00:19;;;;;;;287.67;262.20;;;;;;;17.27;27.72;93356.34;5023110;28;20136;-70
2022/04/03 02:02:45;;;;;;;288.20;262.70;;;;;;;17.28;27.53;93355.16;5020195;28;20100;-70
2022/04/03 02:05:10;;;;;;;283.15;257.77;;;;;;;17.28;27.44;93355.16;5023723;28;20049;-70
2022/04/03 02:07:36;;;;;;;283.30;258.00;;;;;;;17.26;27.42;93350.19;5024954;28;20069;-70
2022/04/03 02:10:12;;;;;;;282.67;257.38;;;;;;;17.26;27.46;93352.16;5024877;28;20044;-70
2022/04/03 02:12:43;;;;;;;277.15;252.13;;;;;;;17.26;27.48;93355.59;5043813;28;20051;-70
2022/04/03 02:15:11;;;;;;;285.85;260.63;;;;;;;17.26;27.34;93357.56;5026222;28;20056;-70
2022/04/03 02:17:38;;;;;;;280.65;255.25;;;;;;;17.25;27.50;93356.81;5026620;28;20045;-70
2022/04/03 02:20:05;;;;;;;278.02;252.57;;;;;;;17.25;27.63;93350.66;5023721;28;20053;-70
2022/04/03 02:22:30;;;;;;;283.75;258.15;;;;;;;17.24;27.48;93349.19;5020290;28;20041;-70
2022/04/03 02:24:57;;;;;;;292.63;266.10;;;;;;;17.24;27.60;93359.97;5023004;28;20076;-70
2022/04/03 02:27:24;;;;;;;284.80;259.60;;;;;;;17.24;27.56;93360.72;5027050;28;20136;-70
2022/04/03 02:29:50;;;;;;;278.55;253.43;;;;;;;17.23;27.63;93356.53;5028178;28;20038;-70
2022/04/03 02:32:16;;;;;;;284.73;259.20;;;;;;;17.23;27.46;93363.91;5025720;28;20051;-70
2022/04/03 02:34:42;;;;;;;284.63;259.02;;;;;;;17.22;27.35;93363.16;5024926;28;20486;-70
2022/04/03 02:37:07;;;;;;;289.65;263.60;;;;;;;17.22;27.50;93365.84;5020309;28;20065;-70
2022/04/03 02:39:33;;;;;;;279.55;254.40;;;;;;;17.22;27.42;93359.69;5024426;28;20041;-70
2022/04/03 02:41:59;;;;;;;279.08;253.75;;;;;;;17.23;27.41;93361.19;5025545;28;20639;-70
2022/04/03 02:44:24;;;;;;;277.00;252.02;;;;;;;17.22;27.51;93365.09;5026103;28;20160;-70
2022/04/03 02:46:50;;;;;;;280.42;254.98;;;;;;;17.22;27.42;93373.97;5020360;28;20541;-70
2022/04/03 02:49:16;;;;;;;281.73;256.27;;;;;;;17.21;27.51;93364.34;5023394;28;20448;-69
2022/04/03 02:51:41;;;;;;;283.48;257.88;;;;;;;17.22;27.55;93367.81;5025839;28;20041;-70
2022/04/03 02:54:07;;;;;;;281.15;255.85;;;;;;;17.22;27.65;93376.66;5023914;28;20541;-70
2022/04/03 02:56:33;;;;;;;281.98;256.20;;;;;;;17.22;27.48;93373.22;5024759;28;20038;-70
2022/04/03 02:58:58;;;;;;;282.23;256.95;;;;;;;17.22;27.52;93378.63;5026764;28;20045;-70
2022/04/03 03:01:24;;;;;;;285.60;260.13;;;;;;;17.23;27.43;93382.81;5025332;28;20052;-70
2022/04/03 03:03:50;;;;;;;279.92;254.80;;;;;;;17.23;27.43;93380.09;5024539;28;20052;-70
2022/04/03 03:06:16;;;;;;;279.95;254.75;;;;;;;17.22;27.33;93378.63;5026710;28;20382;-70
2022/04/03 03:08:42;;;;;;;270.98;245.98;;;;;;;17.23;27.70;93374.72;5026218;28;20033;-70
2022/04/03 03:11:08;;;;;;;280.90;255.57;;;;;;;17.23;27.57;93380.09;5020347;28;20033;-70
2022/04/03 03:13:34;;;;;;;283.05;258.25;;;;;;;17.22;27.61;93379.38;5025861;28;20064;-70
2022/04/03 03:15:59;;;;;;;274.52;249.60;;;;;;;17.21;27.35;93379.81;5024027;28;20049;-70
2022/04/03 03:18:26;;;;;;;277.40;252.38;;;;;;;17.21;27.62;93377.88;5025229;28;20065;-70
2022/04/03 03:20:52;;;;;;;271.58;246.70;;;;;;;17.20;27.51;93375.63;5021234;28;20584;-69
2022/04/03 03:23:18;;;;;;;275.08;249.93;;;;;;;17.20;27.52;93376.38;5025093;28;20068;-70
2022/04/03 03:25:45;;;;;;;280.33;255.00;;;;;;;17.21;27.59;93388.69;5028202;28;20040;-70
2022/04/03 03:28:11;;;;;;;285.67;260.23;;;;;;;17.20;27.65;93383.75;5026461;28;20053;-70
2022/04/03 03:30:37;;;;;;;277.35;252.52;;;;;;;17.19;27.57;93384.94;5026046;28;20448;-70
2022/04/03 03:33:02;;;;;;;269.73;245.07;;;;;;;17.20;27.44;93391.84;5026493;28;20049;-70
2022/04/03 03:35:28;;;;;;;274.77;249.88;;;;;;;17.19;27.63;93395.75;5025004;28;20068;-71
2022/04/03 03:37:54;;;;;;;281.27;256.13;;;;;;;17.19;27.51;93390.34;5027957;28;20053;-71
2022/04/03 03:40:19;;;;;;;278.95;253.70;;;;;;;17.18;27.59;93391.56;5024906;28;20044;-70
2022/04/03 03:42:45;;;;;;;261.83;237.60;;;;;;;17.19;27.90;93395.75;5023823;28;20383;-70
2022/04/03 03:45:13;;;;;;;278.42;252.88;;;;;;;17.18;27.51;93397.72;5025242;28;20195;-70
2022/04/03 03:47:39;;;;;;;294.45;268.02;;;;;;;17.16;27.38;93396.69;5022355;28;20627;-70
2022/04/03 03:50:06;;;;;;;283.42;257.60;;;;;;;17.13;27.59;93406.47;5037454;28;20041;-70
2022/04/03 03:52:31;;;;;;;282.10;256.88;;;;;;;17.13;27.64;93409.91;5025771;28;20160;-70
2022/04/03 03:54:57;;;;;;;286.70;260.58;;;;;;;17.15;27.64;93411.41;5026309;28;20046;-71
2022/04/03 03:57:23;;;;;;;294.10;266.98;;;;;;;17.16;27.50;93413.63;5025299;28;20049;-70
2022/04/03 03:59:48;;;;;;;270.90;246.07;;;;;;;17.15;27.39;93409.44;5024121;28;20048;-70
2022/04/03 04:02:13;;;;;;;292.45;266.30;;;;;;;17.17;27.83;93414.38;5020607;28;20411;-70
2022/04/03 04:04:39;;;;;;;293.35;267.00;;;;;;;17.18;27.75;93407.78;5023469;28;20068;-70
2022/04/03 04:07:05;;;;;;;286.95;260.92;;;;;;;17.19;27.60;93414.66;5023189;28;20417;-70
2022/04/03 04:09:31;;;;;;;290.88;264.42;;;;;;;17.20;27.59;93418.88;5027271;28;20052;-70
2022/04/03 04:11:57;;;;;;;283.88;258.17;;;;;;;17.19;27.60;93414.66;5028006;28;20038;-70
2022/04/03 04:14:22;;;;;;;285.45;259.45;;;;;;;17.21;27.44;93421.09;5024157;28;20053;-70
2022/04/03 04:16:48;;;;;;;274.15;249.55;;;;;;;17.21;27.69;93426.50;5024715;28;20163;-71
2022/04/03 04:19:15;;;;;;;286.65;260.88;;;;;;;17.23;27.61;93421.38;5024347;28;20103;-70
2022/04/03 04:21:41;;;;;;;275.60;250.98;;;;;;;17.24;27.68;93427.53;5024252;28;20120;-70
2022/04/03 04:24:06;;;;;;;274.63;249.48;;;;;;;17.26;27.61;93430.53;5024058;28;20041;-70
2022/04/03 04:26:32;;;;;;;281.20;255.93;;;;;;;17.26;27.53;93431.28;5024171;28;20045;-70
2022/04/03 04:28:58;;;;;;;290.20;264.73;;;;;;;17.26;27.60;93427.81;5024395;28;20429;-70
2022/04/03 04:31:23;;;;;;;283.38;257.90;;;;;;;17.28;27.54;93444.31;5024238;28;20757;-70
2022/04/03 04:33:49;;;;;;;285.02;260.13;;;;;;;17.29;27.69;93440.41;5023881;28;20049;-70
2022/04/03 04:36:15;;;;;;;290.08;264.45;;;;;;;17.30;27.62;93439.94;5022685;28;20049;-71
2022/04/03 04:38:41;;;;;;;288.15;262.85;;;;;;;17.32;27.67;93442.19;5022740;28;20045;-70
2022/04/03 04:41:06;;;;;;;288.70;263.45;;;;;;;17.35;27.71;93446.66;5021952;28;20478;-70
2022/04/03 04:43:32;;;;;;;283.90;258.55;;;;;;;17.36;27.64;93445.47;5024717;28;20049;-70
2022/04/03 04:45:57;;;;;;;289.55;264.10;;;;;;;17.38;27.52;93453.84;5024002;28;20112;-70
2022/04/03 04:48:23;;;;;;;296.02;270.42;;;;;;;17.40;27.64;93456.84;5022372;28;20053;-70
2022/04/03 04:50:49;;;;;;;280.13;255.25;;;;;;;17.41;27.55;93459.09;5028989;28;20076;-70
2022/04/03 04:53:14;;;;;;;307.85;280.73;;;;;;;17.44;27.50;93460.88;5023613;28;20041;-71
2022/04/03 04:55:40;;;;;;;281.67;256.80;;;;;;;17.47;27.56;93458.44;5024890;28;20057;-70
2022/04/03 04:58:06;;;;;;;286.80;261.50;;;;;;;17.49;27.81;93459.47;5025758;28;20041;-71
2022/04/03 05:00:32;;;;;;;291.42;266.27;;;;;;;17.51;27.66;93459.75;5024864;28;20156;-71
2022/04/03 05:02:58;;;;;;;292.65;267.45;;;;;;;17.55;27.41;93462.28;5024199;28;20037;-71
2022/04/03 05:05:24;;;;;;;297.40;271.92;;;;;;;17.58;27.72;93458.63;5021381;28;20041;-71
2022/04/03 05:07:54;;;;;;;299.92;274.48;;;;;;;17.59;27.30;93463.56;5024465;28;20041;-71
2022/04/03 05:10:20;;;;;;;306.83;280.88;;;;;;;17.62;27.30;93472.72;5022512;28;20053;-71
2022/04/03 05:12:46;;;;;;;293.95;268.92;;;;;;;17.64;27.56;93473.75;5023751;28;20445;-71
2022/04/03 05:15:13;;;;;;;304.80;279.25;;;;;;;17.66;27.25;93473.31;5024276;28;20045;-71
2022/04/03 05:17:43;;;;;;;305.48;279.85;;;;;;;17.68;27.45;93479.00;5024565;28;20400;-71
2022/04/03 05:20:13;;;;;;;299.75;274.25;;;;;;;17.68;27.29;93477.03;5021828;28;20065;-71
2022/04/03 05:22:51;;;;;;;298.90;273.13;;;;;;;17.70;27.32;93479.28;5021182;28;20202;-71
2022/04/03 05:25:16;;;;;;;300.25;274.55;;;;;;;17.71;27.20;93484.22;5019989;28;20053;-71
2022/04/03 05:27:44;;;;;;;318.60;291.83;;;;;;;17.71;27.31;93481.53;5025591;28;20041;-71
2022/04/03 05:30:10;;;;;;;294.25;268.77;;;;;;;17.73;27.34;93489.91;5025002;28;20045;-70
2022/04/03 05:32:36;;;;;;;301.40;276.17;;;;;;;17.75;27.18;93487.50;5023635;28;20540;-71
2022/04/03 05:35:03;;;;;;;297.50;272.27;;;;;;;17.78;27.10;93488.53;5027322;28;20041;-71
2022/04/03 05:37:29;;;;;;;306.67;281.52;;;;;;;17.81;27.21;93489.56;5026774;28;20049;-70
2022/04/03 05:39:55;;;;;;;309.52;283.48;;;;;;;17.78;27.17;93491.97;5031631;28;20086;-71
2022/04/03 05:42:21;;;;;;;310.67;284.70;;;;;;;17.80;27.35;93499.63;5024123;28;20068;-71
2022/04/03 05:44:47;;;;;;;311.67;285.10;;;;;;;17.81;27.23;93501.13;5014488;28;20396;-70
2022/04/03 05:47:13;;;;;;;309.98;283.92;;;;;;;17.81;27.19;93503.09;5023630;28;20041;-71
2022/04/03 05:49:39;;;;;;;306.67;281.08;;;;;;;17.78;27.22;93494.69;5026523;28;20038;-71
2022/04/03 05:52:04;;;;;;;306.20;280.52;;;;;;;17.81;27.06;93500.38;5021500;28;20356;-71
2022/04/03 05:54:30;;;;;;;304.40;279.05;;;;;;;17.81;27.00;93503.84;5028822;28;20037;-69
2022/04/03 05:56:56;;;;;;;316.67;290.55;;;;;;;17.81;27.15;93497.69;5024966;28;20064;-69
2022/04/03 05:59:22;;;;;;;324.85;298.10;;;;;;;17.79;27.10;93506.25;5029940;28;20443;-70
2022/04/03 06:01:48;;;;;;;326.55;299.52;;;;;;;17.80;27.09;93509.72;5019203;28;20152;-68
2022/04/03 06:04:14;;;;;;;308.55;283.23;;;;;;;17.78;27.11;93510.91;5019184;28;20196;-69
2022/04/03 06:06:40;;;;;;;315.63;289.80;;;;;;;17.80;27.16;93509.72;5025199;28;20534;-67
2022/04/03 06:09:06;;;;;;;319.83;293.75;;;;;;;17.78;27.16;93512.88;5025805;28;20111;-70
2022/04/03 06:11:32;;;;;;;321.98;295.55;;;;;;;17.80;27.31;93515.13;5020734;28;20048;-68
2022/04/03 06:13:57;;;;;;;304.58;279.27;;;;;;;17.81;27.39;93522.75;5018628;28;20034;-69
2022/04/03 06:16:23;;;;;;;318.33;292.48;;;;;;;17.80;27.09;93518.56;5008792;28;20073;-70
2022/04/03 06:18:48;;;;;;;309.40;283.75;;;;;;;17.81;27.24;93517.34;5024192;28;20547;-70
2022/04/03 06:21:14;;;;;;;314.20;288.08;;;;;;;17.81;27.30;93522.03;5025223;28;20414;-70
2022/04/03 06:23:39;;;;;;;364.90;332.52;;;;;;;17.83;27.21;93527.72;5009648;28;20667;-70
2022/04/03 06:26:05;;;;;;;318.13;290.75;;;;;;;17.84;27.12;93524.53;4994748;28;20045;-71
2022/04/03 06:28:30;;;;;;;326.52;299.05;;;;;;;17.84;27.00;93529.22;4998323;28;20136;-71
2022/04/03 06:30:56;;;;;;;328.48;300.42;;;;;;;17.84;27.12;93532.66;4996776;28;20041;-71
2022/04/03 06:33:23;;;;;;;334.80;306.08;;;;;;;17.84;27.02;93532.66;4996658;28;20038;-71
2022/04/03 06:35:49;;;;;;;329.80;301.65;;;;;;;17.86;27.09;93534.91;4995001;28;20054;-69
2022/04/03 06:38:15;;;;;;;327.38;299.38;;;;;;;17.84;27.05;93551.59;4995841;28;20062;-69
2022/04/03 06:40:52;;;;;;;326.98;299.08;;;;;;;17.84;27.15;93550.84;5003872;28;20054;-69
2022/04/03 06:43:27;;;;;;;326.73;298.05;;;;;;;17.82;27.08;93548.59;4998957;28;20359;-69
2022/04/03 06:45:54;;;;;;;326.58;298.10;;;;;;;17.82;27.03;93554.00;4995700;28;20081;-70
2022/04/03 06:48:20;;;;;;;320.58;292.63;;;;;;;17.82;27.08;93561.38;4992311;28;20140;-70
2022/04/03 06:50:45;;;;;;;356.60;325.88;;;;;;;17.81;26.94;93562.59;4991874;28;20042;-70
2022/04/03 06:53:11;;;;;;;309.25;282.60;;;;;;;17.77;26.96;93565.47;4990856;28;20793;-69
2022/04/03 06:55:37;;;;;;;321.08;293.15;;;;;;;17.75;27.02;93562.47;4998358;28;20521;-70
2022/04/03 06:58:03;;;;;;;331.08;302.52;;;;;;;17.71;26.84;93556.50;4998040;28;20037;-70
2022/04/03 07:00:29;;;;;;;313.92;286.27;;;;;;;17.67;26.83;93575.59;5002236;28;20342;-68
2022/04/03 07:02:56;;;;;;;327.27;298.50;;;;;;;17.65;26.77;93564.50;4999758;28;20105;-68
2022/04/03 07:05:22;;;;;;;327.25;297.98;;;;;;;17.63;26.75;93574.25;5011622;28;21040;-69
2022/04/03 07:07:51;;;;;;;324.95;296.33;;;;;;;17.61;26.75;93571.25;4995457;28;20050;-70
2022/04/03 07:10:17;;;;;;;310.00;283.00;;;;;;;17.61;26.85;93576.66;4999301;28;20065;-70
2022/04/03 07:12:42;;;;;;;326.23;297.77;;;;;;;17.59;26.75;93577.13;4997183;28;20053;-70
2022/04/03 07:15:11;;;;;;;321.27;293.25;;;;;;;17.59;26.68;93579.84;4996160;28;20099;-69
2022/04/03 07:17:41;;;;;;;321.55;294.00;;;;;;;17.57;26.63;93571.44;4994112;28;20045;-69
2022/04/03 07:20:08;;;;;;;310.52;282.77;;;;;;;17.57;26.68;93573.41;4993925;28;20046;-70
2022/04/03 07:22:34;;;;;;;313.40;285.55;;;;;;;17.58;26.63;93580.28;4996249;28;20087;-69
2022/04/03 07:25:00;;;;;;;312.90;285.50;;;;;;;17.60;26.72;93588.69;4995102;28;20393;-70
2022/04/03 07:27:27;;;;;;;332.45;303.42;;;;;;;17.61;26.23;93582.09;4997784;28;20056;-70
2022/04/03 07:29:52;;;;;;;321.27;293.42;;;;;;;17.62;26.74;93595.13;4996741;28;20442;-71
2022/04/03 07:32:18;;;;;;;327.10;298.85;;;;;;;17.63;26.59;93598.59;4999541;28;20140;-71
2022/04/03 07:34:44;;;;;;;335.50;305.88;;;;;;;17.64;26.66;93595.44;4998390;28;20066;-72
2022/04/03 07:37:09;;;;;;;330.38;301.58;;;;;;;17.64;26.64;93595.44;5005075;28;20080;-72
2022/04/03 07:39:35;;;;;;;336.98;308.02;;;;;;;17.63;26.36;93598.59;5004866;28;20057;-71
2022/04/03 07:42:03;;;;;;;325.92;296.92;;;;;;;17.64;26.59;93597.38;5002506;28;20052;-70
2022/04/03 07:44:29;;;;;;;323.05;294.77;;;;;;;17.61;26.74;93601.00;5008083;28;20528;-71
2022/04/03 07:46:54;;;;;;;316.45;288.48;;;;;;;17.61;26.67;93607.16;5003718;28;20049;-71
2022/04/03 07:49:20;;;;;;;325.25;296.65;;;;;;;17.61;26.66;93606.41;5001409;28;20053;-72
2022/04/03 07:51:46;;;;;;;310.63;283.52;;;;;;;17.60;26.55;93610.31;5007487;28;20121;-71
2022/04/03 07:54:12;;;;;;;316.77;289.65;;;;;;;17.59;26.66;93615.00;5004488;28;20060;-70
2022/04/03 07:56:37;;;;;;;312.52;284.95;;;;;;;17.60;26.66;93619.19;5005919;28;20540;-71
2022/04/03 07:59:05;;;;;;;316.98;289.58;;;;;;;17.61;26.74;93612.56;5000286;28;20041;-70
2022/04/03 08:01:33;;;;;;;326.52;297.48;;;;;;;17.61;26.61;93619.94;5000198;28;20550;-71
2022/04/03 08:03:59;;;;;;;332.58;303.38;;;;;;;17.60;26.69;93615.75;4993054;28;20053;-71
2022/04/03 08:06:24;;;;;;;328.88;300.25;;;;;;;17.59;26.58;93625.06;4990001;28;20556;-71
2022/04/03 08:08:50;;;;;;;323.67;295.45;;;;;;;17.57;26.46;93625.50;4994731;28;20049;-71
2022/04/03 08:11:17;;;;;;;332.45;303.63;;;;;;;17.57;26.57;93628.22;4996863;28;20038;-70
2022/04/03 08:13:43;;;;;;;412.55;373.85;;;;;;;17.58;26.54;93623.56;4992189;28;20050;-71
2022/04/03 08:16:09;;;;;;;345.58;315.10;;;;;;;17.59;26.65;93633.16;4991086;28;20057;-71
2022/04/03 08:18:34;;;;;;;328.35;299.98;;;;;;;17.58;26.71;93629.72;4989590;28;20061;-71
2022/04/03 08:21:00;;;;;;;318.10;290.38;;;;;;;17.60;26.67;93627.31;4988792;28;20247;-71
2022/04/03 08:23:26;;;;;;;319.90;291.73;;;;;;;17.59;26.88;93633.16;4992731;28;20626;-70
2022/04/03 08:25:51;;;;;;;323.80;295.67;;;;;;;17.61;26.71;93642.31;4998138;28;20053;-70
2022/04/03 08:28:17;;;;;;;337.60;308.20;;;;;;;17.63;26.79;93636.44;4996453;28;20061;-71
2022/04/03 08:30:43;;;;;;;323.67;295.92;;;;;;;17.64;26.65;93638.69;4995265;28;20069;-70
2022/04/03 08:33:09;;;;;;;314.73;287.45;;;;;;;17.65;26.71;93650.25;5005427;28;20069;-70
2022/04/03 08:35:40;;;;;;;311.02;284.20;;;;;;;17.65;26.53;93645.63;5007813;28;20076;-70
2022/04/03 08:38:09;;;;;;;325.00;296.38;;;;;;;17.66;26.60;93646.38;5003212;28;20056;-70
2022/04/03 08:40:35;;;;;;;307.23;280.50;;;;;;;17.64;26.66;93636.00;5003321;28;20068;-70
2022/04/03 08:43:03;;;;;;;307.10;280.58;;;;;;;17.66;26.67;93640.97;5005051;28;20123;-70
2022/04/03 08:45:29;;;;;;;311.45;283.90;;;;;;;17.66;26.71;93644.41;5001483;28;20125;-70
2022/04/03 08:48:01;;;;;;;300.95;274.67;;;;;;;17.66;26.92;93638.25;5004230;28;21944;-70
2022/04/03 08:50:37;;;;;;;310.10;282.50;;;;;;;17.65;26.60;93648.34;5003312;28;20053;-70
2022/04/03 08:53:06;;;;;;;316.15;288.60;;;;;;;17.63;26.52;93650.72;5001923;28;20037;-70
2022/04/03 08:55:32;;;;;;;325.92;297.77;;;;;;;17.66;26.61;93654.50;4999957;28;20490;-70
2022/04/03 08:57:58;;;;;;;307.45;280.15;;;;;;;17.68;26.47;93657.47;5005385;28;20053;-69
2022/04/03 09:00:24;;;;;;;313.10;285.55;;;;;;;17.70;26.74;93660.47;5000597;28;20163;-70
2022/04/03 09:02:50;;;;;;;320.30;292.55;;;;;;;17.68;26.60;93652.81;5002508;28;20669;-71
2022/04/03 09:05:18;;;;;;;318.80;290.88;;;;;;;17.68;26.75;93655.53;5003430;28;20046;-71
2022/04/03 09:07:44;;;;;;;312.20;285.10;;;;;;;17.64;26.47;93657.63;5002974;28;20528;-71
2022/04/03 09:10:14;;;;;;;319.88;291.88;;;;;;;17.65;26.77;93663.78;5003690;28;20116;-70
2022/04/03 09:12:44;;;;;;;318.23;290.25;;;;;;;17.60;26.66;93659.75;5003255;28;20149;-71
2022/04/03 09:15:16;;;;;;;316.17;288.42;;;;;;;17.59;26.60;93660.97;5002372;28;20509;-71
2022/04/03 09:17:44;;;;;;;313.08;285.48;;;;;;;17.58;26.65;93659.47;5003955;28;20053;-70
2022/04/03 09:20:14;;;;;;;311.95;284.42;;;;;;;17.58;26.78;93662.16;5003667;28;20067;-69
2022/04/03 09:22:42;;;;;;;306.75;279.55;;;;;;;17.56;26.46;93664.56;5004653;28;20064;-70
2022/04/03 09:25:11;;;;;;;305.40;278.48;;;;;;;17.55;26.61;93665.06;5005838;28;20493;-70
2022/04/03 09:27:54;;;;;;;319.60;291.52;;;;;;;17.50;26.64;93662.97;5004900;28;20491;-70
2022/04/03 09:30:31;;;;;;;301.83;274.85;;;;;;;17.52;26.64;93665.97;5002686;28;20060;-69
2022/04/03 09:32:59;;;;;;;310.00;282.95;;;;;;;17.53;26.56;93668.22;5004027;28;20053;-70
2022/04/03 09:35:29;;;;;;;302.42;275.17;;;;;;;17.52;26.55;93669.44;5002488;28;20140;-68
2022/04/03 09:38:07;;;;;;;313.00;285.25;;;;;;;17.50;26.68;93661.03;5003521;28;20057;-69
2022/04/03 09:40:34;;;;;;;305.30;277.67;;;;;;;17.52;26.76;93665.97;5001458;28;20037;-69
2022/04/03 09:43:18;;;;;;;296.02;270.35;;;;;;;17.47;26.89;93666.59;5001670;28;20425;-70
2022/04/03 09:45:47;;;;;;;308.15;280.35;;;;;;;17.49;26.64;93675.00;5002110;28;20091;-70
2022/04/03 09:48:34;;;;;;;306.05;278.73;;;;;;;17.47;26.50;93666.59;5001262;28;20059;-69
2022/04/03 09:51:21;;;;;;;300.00;273.05;;;;;;;17.48;26.54;93662.69;5005324;28;20056;-69
2022/04/03 09:53:53;;;;;;;295.90;269.85;;;;;;;17.50;26.57;93658.31;5003249;28;20053;-70
2022/04/03 09:56:23;;;;;;;299.58;272.42;;;;;;;17.50;26.57;93666.44;5002222;28;20042;-69
2022/04/03 09:58:51;;;;;;;288.65;262.42;;;;;;;17.50;26.77;93663.72;4996297;28;20123;-70
2022/04/03 10:01:35;;;;;;;312.60;284.42;;;;;;;17.45;26.64;93659.69;4997281;28;20053;-70
2022/04/03 10:04:03;;;;;;;299.52;272.13;;;;;;;17.44;26.46;93660.91;4998899;28;20060;-70
2022/04/03 10:06:30;;;;;;;307.45;279.77;;;;;;;17.46;26.64;93668.56;4994153;28;20168;-70
2022/04/03 10:08:56;;;;;;;302.48;274.92;;;;;;;17.46;26.84;93660.44;5010144;28;20041;-71
2022/04/03 10:11:23;;;;;;;306.23;278.20;;;;;;;17.43;26.77;93667.50;4994430;28;20053;-70
2022/04/03 10:13:49;;;;;;;290.88;265.33;;;;;;;17.44;26.46;93660.91;4996263;28;20045;-70
2022/04/03 10:16:17;;;;;;;303.95;276.50;;;;;;;17.40;26.63;93662.28;4995721;28;20045;-70
2022/04/03 10:18:44;;;;;;;317.08;289.08;;;;;;;17.41;26.67;93664.53;4995949;28;20111;-70
2022/04/03 10:21:16;;;;;;;305.45;278.40;;;;;;;17.40;26.71;93670.38;4997389;28;20121;-70
2022/04/03 10:23:45;;;;;;;301.70;274.88;;;;;;;17.41;26.61;93666.47;4995848;28;20578;-70
2022/04/03 10:26:16;;;;;;;311.55;284.35;;;;;;;17.44;26.58;93670.97;4996383;28;20120;-71
2022/04/03 10:28:49;;;;;;;289.33;264.05;;;;;;;17.46;26.54;93665.84;5022905;28;20128;-71
2022/04/03 10:31:16;;;;;;;296.92;271.02;;;;;;;17.47;26.63;93672.75;5022287;28;20119;-73
2022/04/03 10:33:44;;;;;;;288.00;262.77;;;;;;;17.48;26.57;93670.81;5025936;28;20069;-71
2022/04/03 10:36:12;;;;;;;291.13;265.98;;;;;;;17.48;26.58;93670.81;5027298;28;20103;-73
2022/04/03 10:39:03;;;;;;;288.88;263.83;;;;;;;17.47;26.53;93677.41;5025689;28;20048;-71
2022/04/03 10:41:43;;;;;;;287.33;262.23;;;;;;;17.48;26.86;93678.91;5028113;28;20044;-72
2022/04/03 10:44:25;;;;;;;286.23;261.20;;;;;;;17.47;26.65;93674.72;5024599;28;20823;-72
2022/04/03 10:47:03;;;;;;;296.85;270.63;;;;;;;17.45;26.58;93678.63;5023917;28;20053;-71
2022/04/03 10:49:32;;;;;;;285.90;260.73;;;;;;;17.45;26.57;93675.91;5026520;28;20049;-69
2022/04/03 10:52:06;;;;;;;287.48;262.75;;;;;;;17.49;26.75;93683.13;5027596;28;20505;-70
2022/04/03 10:54:42;;;;;;;289.38;264.42;;;;;;;17.47;26.71;93683.56;5023482;28;20147;-68
2022/04/03 10:57:34;;;;;;;290.73;265.65;;;;;;;17.49;26.75;93672.31;5025466;28;20041;-71
2022/04/03 11:00:12;;;;;;;289.23;264.08;;;;;;;17.49;26.85;93683.88;5020212;28;20529;-69
2022/04/03 11:02:42;;;;;;;298.00;271.98;;;;;;;17.49;26.88;93681.16;5021964;28;20041;-69